Meteo Giornale » Osservazioni meteo Repubblica Ceca » Namest

ore: 04:30 - Osservazioni Meteo Namest
Lat. 49° 10' N Lon. 16° 7' E Alt. 472 metri s.l.m.

sereno Europe/Prague

15 °C

Sereno

Temp. 24 Ore

14 °C

26 °C

Nord

3.7 Km/h

Dew point 8 °C

Umidità 62 %

Visibilità  10 Km

Il sole sorge alle ore 05:14

Il sole tramonta alle ore 20:29

Data e Ora Cielo e Fenomeni T °C DP °C Um. % Pres. hPa Vis. km Vento km/h
Oggi h: 04:30 sereno Sereno 15 8 62 1006 10 N 3.7
Oggi h: 03:30 sereno Sereno 17 8 55 1006 10 NE 9.3
Oggi h: 02:30 sereno Sereno 16 8 58 1006 10 E/NE 11.1
Oggi h: 02:00 sereno Sereno 16 8 58 1006 10 NE 9.3
Oggi h: 01:30 sereno Sereno 17 8 55 1006 10 S 13
Oggi h: 01:00 sereno Sereno 17 8 55 1006 10 S 14.8
Oggi h: 00:30 sereno Sereno 19 9 52 1006 10 S 13
Oggi h: 00:00 sereno Sereno 19 9 52 1007 10 S/SE 14.8
Ieri h: 23:30 sereno Sereno 20 8 45 1007 10 S/SE 18.5
Ieri h: 23:00 sereno Sereno 20 8 45 1007 10 S/SE 20.3
Ieri h: 22:30 sereno Sereno 20 7 42 1007 10 S/SE 20.3
Ieri h: 22:00 sereno Sereno 20 7 42 1007 10 SE 24
Ieri h: 21:30 sereno Sereno 21 7 40 1007 10 SE 24
Ieri h: 21:00 sereno Sereno 22 7 37 1006 10 SE 27.8
Ieri h: 20:30 sereno Sereno 22 7 37 1006 10 SE 29.6
Ieri h: 20:00 sereno Sereno 23 7 35 1006 10 SE 29.6
Ieri h: 19:30 sereno Sereno 24 7 33 1006 10 SE 35.2
Ieri h: 19:00 sereno Sereno 24 7 33 1006 10 SE 35.2
Ieri h: 18:30 sereno Sereno 24 7 33 1006 10 SE 40.7
Ieri h: 18:00 sereno Sereno 25 7 31 1006 10 SE 44.4
Ieri h: 17:30 sereno Sereno 26 7 29 1006 10 SE 42.6
Ieri h: 17:00 sereno Sereno 26 7 29 1006 10 S/SE 44.4
Ieri h: 16:30 sereno Sereno 26 8 31 1006 10 SE 42.6
Ieri h: 16:00 sereno Sereno 26 8 31 1007 10 S/SE 44.4
Ieri h: 15:30 sereno Sereno 26 7 29 1007 10 S/SE 44.4
Ieri h: 15:00 sereno Sereno 26 6 27 1007 10 SE 46.3
Ieri h: 13:30 sereno Sereno 26 8 31 1008 10 SE 37
Ieri h: 13:00 sereno Sereno 25 9 36 1008 10 SE 33.3
Ieri h: 12:30 sereno Sereno 24 8 35 1008 10 SE 35.2
Ieri h: 12:00 sereno Sereno 23 9 40 1009 10 SE 31.5
Ieri h: 11:00 sereno Sereno 21 8 43 1009 10 SE 37
Ieri h: 10:30 sereno Sereno 21 8 43 1009 10 SE 35.2
Ieri h: 10:00 sereno Sereno 20 9 49 1009 10 SE 33.3
Ieri h: 09:30 sereno Sereno 19 9 52 1009 10 SE 33.3
Ieri h: 08:30 sereno Sereno 17 9 59 1009 10 E/SE 24
Ieri h: 08:00 sereno Sereno 16 9 63 1009 10 E/SE 25.9
Ieri h: 07:30 sereno Sereno 16 9 63 1009 10 E/SE 24
Ieri h: 06:30 sereno Sereno 14 9 71 1009 10 E/SE 22.2
Ieri h: 06:00 sereno Sereno 14 9 71 1009 10 E/SE 20.3